Miracle, KY (40856)

2:21 AM EDT on September 20, 2014 (GMT -0400)
Colmar | Change Station
CLOSE
Current Station
Personal Weather Station
Location: Middlesboro, KY
Elevation: 1135 ft
Nearby Weather Stations

Elev 1135 ft 36.66 °N, 83.67 °W | Updated 21 seconds ago

Partly Cloudy
Partly Cloudy
59.3 °F
Feels Like 59.3 °F
N
0.0
Wind Variable Wind from SSW

Today
High -- | Low -- °F
--% Chance of Precip.
Yesterday
High -- | Low -- °F
Precip. -- in
7:20 AM 7:34 PM
Waning Crescent, 14% visible
Pressure 30.17 in
Visibility 10.0 miles
Clouds Clear
Dew Point 58 °F
Humidity 95%
Rainfall 0.00 in
Snow Depth Not available.
UV 0 out of 12
Pollen 5.30 out of 12
Air Quality Not available.
Flu Activity Not available.
METAR K1A6 200615Z AUTO 00000KT 10SM CLR 16/15 A3017 RMK AO2 T01610147

More Conditions Fewer Conditions

Pressure 30.17 in
Visibility 10.0 miles
Clouds Clear
Dew Point 58 °F
Humidity 95%
Rainfall 0.00 in
Snow Depth Not available.
UV 0 out of 12
Pollen 5.30 out of 12
Air Quality Not available.
Flu Activity Not available.
METAR K1A6 200615Z AUTO 00000KT 10SM CLR 16/15 A3017 RMK AO2 T01610147

More Conditions Fewer Conditions

10-Day Weather Forecast

Almanac

Astronomy

Sep. 20, 2014 Rise Set
Actual Time 7:20 AM EDT 7:34 PM EDT
Civil Twilight 6:54 AM EDT 8:00 PM EDT
Nautical Twilight 6:24 AM EDT 8:30 PM EDT
Astronomical Twilight 5:53 AM EDT 9:00 PM EDT
Moon 4:03 AM EDT 5:33 PM EDT
Length of Visible Light 13h 05m
Length of Day
12h 13m
Tomorrow will be 2m 18s shorter.
Waning Crescent, 14% of the Moon is Illuminated
Today
Waning Crescent
Sep 24
New
Oct 1
First Quarter
Oct 8
Full
Oct 15
Last Quarter

Today's Extremes

State Highs State Lows

Community

WunderPhotos

Upload Photos

1,754,779 photos uploaded!

WunderBlogs® & News

Nearby

Snow Depth

Station Depth Elevation
No new snow has been reported.

Earthquake Activity

City Distance Mag. Time & Date
No recent earthquake activity has been reported nearby.
Minimum magnitude displayed is 2.5.

Coastal Water Temperatures

Place Temperature
No Stations Reporting

Nearby Weather Stations